Terminal Aerodrome Forecast
Issued by NWS Pendleton, OR

Home | Current Version | Previous Version | Text Only | Print | Product List | Glossary On
Versions: 1 2 3 4 5 6 7 8 9 10 11 12 13 14 15
000
FTUS46 KPDT 012320
TAFPDT
TAF
KPDT 012320Z 0200/0224 07007KT P6SM FEW050
     FM020400 11003KT P6SM SKC
     FM022000 05008KT P6SM SCT070=

USA.gov is the U.S. government's official web portal to all federal, state and local government web resources and services.